Gold Creek, Arkansas
Current Conditions -  °F | °C
As of 2:58 PM on Saturday 25 Oct 2014 (Local Time) from KLRF Reporting Station
Clear Clear  
Wind Chill: 85°   Ceiling: Unl
Heat Index: 87°   Visibility: 10mi
Dew Point: 64°   Wind: 8mph
Humidity: 49%   Direction: 290°WNW
Pressure: 30.03"   Gusts: NA
Location:  35.0822°N, 92.366°W
Report Text: KLRF 251958Z AUTO 29007KT 10SM CLR 30/18 A3003 RMK AO2 SLP170 T02970179
Loading
Personal Weather Stations






























Interactive Weather Map
Tropical Storm Tracking
New forecast layout! Learn more

10-Day Weather Forecast

Advertisements
Track Severe Weather on mobile